createdAt,value
2022-08-08T00:02:02.956Z,26.60
2022-08-08T00:04:19.866Z,26.30
2022-08-08T00:07:09.104Z,26.20
2022-08-08T00:09:39.694Z,26.20
2022-08-08T00:12:12.319Z,26.10
2022-08-08T00:15:01.037Z,25.60
2022-08-08T00:18:02.117Z,25.60
2022-08-08T00:20:19.592Z,25.80
2022-08-08T00:22:49.798Z,25.90
2022-08-08T00:25:25.286Z,26.10
2022-08-08T00:27:59.722Z,26.00
2022-08-08T00:30:36.563Z,26.00
2022-08-08T00:33:10.677Z,26.10
2022-08-08T00:35:55.071Z,25.70
2022-08-08T00:38:54.435Z,25.60
2022-08-08T00:41:21.939Z,25.50
2022-08-08T00:44:07.047Z,25.60
2022-08-08T00:46:57.548Z,25.60
2022-08-08T00:49:33.274Z,25.20
2022-08-08T00:52:22.262Z,25.00
2022-08-08T00:55:11.307Z,25.20
2022-08-08T00:58:05.650Z,25.10
2022-08-08T01:00:50.461Z,25.30
2022-08-08T01:04:01.600Z,25.40
2022-08-08T01:06:27.556Z,25.60
2022-08-08T01:09:36.885Z,25.40
2022-08-08T01:11:52.017Z,25.30
2022-08-08T01:14:54.950Z,24.50
2022-08-08T01:17:34.861Z,24.50
2022-08-08T01:20:06.393Z,25.00
2022-08-08T01:23:03.184Z,25.10
2022-08-08T01:25:54.456Z,24.70
2022-08-08T01:29:02.428Z,25.00
2022-08-08T01:32:06.488Z,25.20
2022-08-08T01:34:57.655Z,25.10
2022-08-08T01:37:58.536Z,24.80
2022-08-08T01:40:32.490Z,24.80
2022-08-08T01:43:19.183Z,24.70
2022-08-08T01:46:27.201Z,24.90
2022-08-08T01:49:23.453Z,24.80
2022-08-08T01:52:42.805Z,24.80
2022-08-08T01:55:25.397Z,24.70
2022-08-08T01:58:11.262Z,24.70
2022-08-08T02:00:34.715Z,24.90
2022-08-08T02:03:54.851Z,24.90
2022-08-08T02:06:07.350Z,24.90
2022-08-08T02:08:47.386Z,24.80
2022-08-08T02:11:53.218Z,24.80
2022-08-08T02:14:28.211Z,24.80
2022-08-08T02:17:10.763Z,24.90
2022-08-08T02:20:09.274Z,24.90
2022-08-08T02:22:54.645Z,24.90
2022-08-08T02:26:00.518Z,24.90
2022-08-08T02:28:51.614Z,24.80
2022-08-08T02:31:58.167Z,24.80
2022-08-08T02:34:14.973Z,24.70
2022-08-08T02:37:51.338Z,24.50
2022-08-08T02:40:00.218Z,24.40
2022-08-08T02:42:41.964Z,24.50
2022-08-08T02:45:27.416Z,24.50
2022-08-08T02:48:26.200Z,24.50
2022-08-08T02:51:30.568Z,24.00
2022-08-08T02:54:27.935Z,23.90
2022-08-08T02:57:17.054Z,23.90
2022-08-08T03:00:31.736Z,23.90
2022-08-08T03:03:02.680Z,23.90
2022-08-08T03:05:55.760Z,23.90
2022-08-08T03:09:01.874Z,24.00
2022-08-08T03:12:05.778Z,24.00
2022-08-08T03:15:58.109Z,24.00
2022-08-08T03:17:34.098Z,24.00
2022-08-08T03:20:07.965Z,24.00
2022-08-08T03:22:57.140Z,23.70
2022-08-08T03:25:36.154Z,23.50
2022-08-08T03:28:09.753Z,23.50
2022-08-08T03:30:39.760Z,23.60
2022-08-08T03:33:56.712Z,23.20
2022-08-08T03:35:51.952Z,23.30
2022-08-08T03:38:58.345Z,23.30
2022-08-08T03:40:56.948Z,23.40
2022-08-08T03:43:38.511Z,23.50
2022-08-08T03:46:09.230Z,23.50
2022-08-08T03:49:56.840Z,23.60
2022-08-08T03:51:11.603Z,23.50
2022-08-08T03:53:47.704Z,23.50
2022-08-08T03:56:31.306Z,23.30
2022-08-08T03:58:53.123Z,23.30
2022-08-08T04:01:24.222Z,23.10
2022-08-08T04:03:57.878Z,23.10
2022-08-08T04:06:29.718Z,22.70
2022-08-08T04:08:57.889Z,22.60
2022-08-08T04:11:27.962Z,22.60
2022-08-08T04:14:03.919Z,22.90
2022-08-08T04:16:38.842Z,22.70
2022-08-08T04:19:02.812Z,22.60
2022-08-08T04:21:41.288Z,22.90
2022-08-08T04:24:05.279Z,23.00
2022-08-08T04:26:45.302Z,22.90
2022-08-08T04:29:06.739Z,23.10
2022-08-08T04:31:59.216Z,23.00
2022-08-08T04:34:09.747Z,23.00
2022-08-08T04:36:41.298Z,22.70
2022-08-08T04:40:03.272Z,22.60
2022-08-08T04:41:42.414Z,22.70
2022-08-08T04:44:11.983Z,22.60
2022-08-08T04:46:42.394Z,22.60
2022-08-08T04:49:13.114Z,22.30
2022-08-08T04:51:57.303Z,22.40
2022-08-08T04:54:39.242Z,22.40
2022-08-08T04:56:46.614Z,22.30
2022-08-08T04:59:16.369Z,22.20
2022-08-08T05:01:48.164Z,22.20
2022-08-08T05:04:17.762Z,22.30
2022-08-08T05:06:50.493Z,22.40
2022-08-08T05:09:19.912Z,22.40
2022-08-08T05:11:56.775Z,22.50
2022-08-08T05:14:21.097Z,22.70
2022-08-08T05:17:00.907Z,22.80
2022-08-08T05:20:12.463Z,22.70
2022-08-08T05:21:58.038Z,22.80
2022-08-08T05:24:28.435Z,22.50
2022-08-08T05:27:00.356Z,22.30
2022-08-08T05:29:30.583Z,22.20
2022-08-08T05:32:04.492Z,22.10
2022-08-08T05:34:37.752Z,22.20
2022-08-08T05:37:17.138Z,22.20
2022-08-08T05:39:44.065Z,22.40
2022-08-08T05:42:15.508Z,22.40
2022-08-08T05:44:49.020Z,22.20
2022-08-08T05:47:22.738Z,22.20
2022-08-08T05:49:55.814Z,22.20
2022-08-08T05:52:35.538Z,22.40
2022-08-08T05:55:02.295Z,22.50
2022-08-08T05:57:57.577Z,22.30
2022-08-08T06:00:19.729Z,22.20
2022-08-08T06:02:55.441Z,22.20
2022-08-08T06:05:34.816Z,22.20
2022-08-08T06:08:09.384Z,22.20
2022-08-08T06:10:38.445Z,22.30
2022-08-08T06:13:09.144Z,22.20
2022-08-08T06:15:51.228Z,22.30
2022-08-08T06:18:20.320Z,22.30
2022-08-08T06:20:45.774Z,22.40
2022-08-08T06:23:17.012Z,22.50
2022-08-08T06:26:38.413Z,22.60
2022-08-08T06:28:29.389Z,22.80
2022-08-08T06:31:05.184Z,22.70
2022-08-08T06:34:26.933Z,22.60
2022-08-08T06:36:13.143Z,22.80
2022-08-08T06:38:47.158Z,23.10
2022-08-08T06:41:19.612Z,23.20
2022-08-08T06:43:57.148Z,23.20
2022-08-08T06:46:26.171Z,23.60
2022-08-08T06:48:57.901Z,23.90
2022-08-08T06:51:31.434Z,24.20
2022-08-08T06:54:03.232Z,24.60
2022-08-08T06:56:39.377Z,25.10
2022-08-08T06:59:12.384Z,25.20
2022-08-08T07:02:16.257Z,25.70
2022-08-08T07:04:47.863Z,26.40
2022-08-08T07:07:25.164Z,26.40
2022-08-08T07:10:08.303Z,26.40
2022-08-08T07:12:47.447Z,26.10
2022-08-08T07:15:31.853Z,26.80
2022-08-08T07:18:00.784Z,27.40
2022-08-08T07:20:26.604Z,27.10
2022-08-08T07:23:23.403Z,27.90
2022-08-08T07:25:54.497Z,28.30
2022-08-08T07:28:31.771Z,27.90
2022-08-08T07:31:00.059Z,27.80
2022-08-08T07:33:38.041Z,27.80
2022-08-08T07:36:05.241Z,28.60
2022-08-08T07:38:38.427Z,28.70
2022-08-08T07:41:16.713Z,29.00
2022-08-08T07:43:53.492Z,29.00
2022-08-08T07:46:23.616Z,29.50
2022-08-08T07:48:47.846Z,29.40
2022-08-08T07:51:23.683Z,29.90
2022-08-08T07:54:27.783Z,29.60
2022-08-08T07:57:08.806Z,29.60
2022-08-08T07:59:39.814Z,29.90
2022-08-08T08:02:36.671Z,30.40
2022-08-08T08:04:49.430Z,30.10
2022-08-08T08:10:38.539Z,30.70
2022-08-08T08:13:25.875Z,30.30
2022-08-08T08:16:04.702Z,31.20
2022-08-08T08:18:52.211Z,31.70
2022-08-08T08:21:14.629Z,31.30
2022-08-08T08:23:43.369Z,31.10
2022-08-08T08:26:27.293Z,31.10
2022-08-08T08:28:49.871Z,31.60
2022-08-08T08:31:20.829Z,31.70
2022-08-08T08:33:50.718Z,31.90
2022-08-08T08:36:22.310Z,31.60
2022-08-08T08:38:54.550Z,31.40
2022-08-08T08:41:31.153Z,32.20
2022-08-08T08:44:13.955Z,32.80
2022-08-08T08:46:33.203Z,32.60
2022-08-08T08:49:04.773Z,32.90
2022-08-08T08:51:38.710Z,32.70
2022-08-08T08:54:13.090Z,32.50
2022-08-08T08:56:43.455Z,32.60
2022-08-08T08:59:23.561Z,32.40
2022-08-08T09:01:56.571Z,32.70
2022-08-08T09:04:39.615Z,33.60
2022-08-08T09:07:12.146Z,33.80
2022-08-08T09:09:47.400Z,33.50
2022-08-08T09:12:11.679Z,33.80
2022-08-08T09:14:46.987Z,34.10
2022-08-08T09:17:23.722Z,33.80
2022-08-08T09:22:00.702Z,34.30
2022-08-08T09:22:31.590Z,34.30
2022-08-08T09:25:01.342Z,34.10
2022-08-08T09:27:56.811Z,34.30
2022-08-08T09:30:06.528Z,34.20
2022-08-08T09:33:54.729Z,34.90
2022-08-08T09:35:32.286Z,35.20
2022-08-08T09:38:06.263Z,35.50
2022-08-08T09:40:46.497Z,35.90
2022-08-08T09:43:16.654Z,35.90
2022-08-08T09:45:55.246Z,35.20
2022-08-08T09:48:32.435Z,35.10
2022-08-08T09:50:58.086Z,35.10
2022-08-08T09:54:01.335Z,35.40
2022-08-08T09:56:06.910Z,35.50
2022-08-08T09:58:44.600Z,35.80
2022-08-08T10:01:14.224Z,35.70
2022-08-08T10:03:46.971Z,36.20
2022-08-08T10:06:21.565Z,36.40
2022-08-08T10:08:54.618Z,36.80
2022-08-08T10:12:27.102Z,36.70
2022-08-08T10:14:01.999Z,36.80
2022-08-08T10:16:41.136Z,36.60
2022-08-08T10:19:12.154Z,36.80
2022-08-08T10:21:50.137Z,36.70
2022-08-08T10:24:29.195Z,36.40
2022-08-08T10:26:59.866Z,36.70
2022-08-08T10:29:58.285Z,36.90
2022-08-08T10:32:40.177Z,36.70
2022-08-08T10:36:01.990Z,37.10
2022-08-08T10:37:54.197Z,37.60
2022-08-08T10:40:25.919Z,37.20
2022-08-08T10:43:00.138Z,38.10
2022-08-08T10:45:41.165Z,36.70
2022-08-08T10:48:03.123Z,37.60
2022-08-08T10:50:37.645Z,37.70
2022-08-08T10:53:12.496Z,37.40
2022-08-08T10:55:46.462Z,36.70
2022-08-08T10:58:13.740Z,37.70
2022-08-08T11:00:53.063Z,37.20
2022-08-08T11:03:37.096Z,36.50
2022-08-08T11:06:00.442Z,37.30
2022-08-08T11:08:38.332Z,37.30
2022-08-08T11:11:32.337Z,37.20
2022-08-08T11:13:51.985Z,37.70
2022-08-08T11:16:32.400Z,38.40
2022-08-08T11:18:58.690Z,37.50
2022-08-08T11:21:35.363Z,37.50
2022-08-08T11:24:05.742Z,37.40
2022-08-08T11:26:53.899Z,37.80
2022-08-08T11:29:11.415Z,37.90
2022-08-08T11:31:48.208Z,36.80
2022-08-08T11:34:23.559Z,38.10
2022-08-08T11:36:51.104Z,37.90
2022-08-08T11:39:21.177Z,37.00
2022-08-08T11:41:52.051Z,36.60
2022-08-08T11:44:28.946Z,35.60
2022-08-08T11:46:55.343Z,37.00
2022-08-08T11:49:27.749Z,38.20
2022-08-08T11:51:57.728Z,38.30
2022-08-08T11:54:38.000Z,37.00
2022-08-08T11:57:27.212Z,35.20
2022-08-08T12:00:05.854Z,36.30
2022-08-08T12:02:53.739Z,36.40
2022-08-08T12:05:38.978Z,37.10
2022-08-08T12:08:10.510Z,38.00
2022-08-08T12:10:53.281Z,39.40
2022-08-08T12:13:33.323Z,39.70
2022-08-08T12:16:09.327Z,37.80
2022-08-08T12:18:49.896Z,38.70
2022-08-08T12:21:59.245Z,35.50
2022-08-08T12:24:12.913Z,36.70
2022-08-08T12:26:58.373Z,37.00
2022-08-08T12:29:45.095Z,38.40
2022-08-08T12:32:31.318Z,37.00
2022-08-08T12:34:57.494Z,37.40
2022-08-08T12:37:40.224Z,37.00
2022-08-08T12:40:05.607Z,37.20
2022-08-08T12:42:47.850Z,36.90
2022-08-08T12:45:54.584Z,36.70
2022-08-08T12:48:04.811Z,37.50
2022-08-08T12:50:15.078Z,38.40
2022-08-08T12:52:47.754Z,38.60
2022-08-08T12:55:35.603Z,39.50
2022-08-08T12:57:49.863Z,39.00
2022-08-08T13:00:23.382Z,38.90
2022-08-08T13:02:58.165Z,39.40
2022-08-08T13:06:03.612Z,39.70
2022-08-08T13:08:03.442Z,39.80
2022-08-08T13:10:36.221Z,39.60
2022-08-08T13:13:08.211Z,39.00
2022-08-08T13:15:37.903Z,38.80
2022-08-08T13:18:13.574Z,37.40
2022-08-08T13:20:48.299Z,38.10
2022-08-08T13:23:35.250Z,38.60
2022-08-08T13:25:59.414Z,37.90
2022-08-08T13:28:26.373Z,36.30
2022-08-08T13:30:57.642Z,35.30
2022-08-08T13:33:27.228Z,36.60
2022-08-08T13:36:00.491Z,37.30
2022-08-08T13:38:31.955Z,37.80
2022-08-08T13:41:01.544Z,38.10
2022-08-08T13:43:31.618Z,37.50
2022-08-08T13:46:27.294Z,38.00
2022-08-08T13:50:32.187Z,37.30
2022-08-08T13:51:33.661Z,36.50
2022-08-08T13:54:02.031Z,36.70
2022-08-08T13:56:44.657Z,37.40
2022-08-08T13:59:07.944Z,37.40
2022-08-08T14:01:53.065Z,37.90
2022-08-08T14:04:09.202Z,37.90
2022-08-08T14:06:43.322Z,37.40
2022-08-08T14:09:24.488Z,37.10
2022-08-08T14:11:48.856Z,37.20
2022-08-08T14:14:21.231Z,37.70
2022-08-08T14:16:50.489Z,37.20
2022-08-08T14:19:54.115Z,36.90
2022-08-08T14:21:53.829Z,37.10
2022-08-08T14:24:35.822Z,36.50
2022-08-08T14:27:07.383Z,36.60
2022-08-08T14:29:39.358Z,37.20
2022-08-08T14:32:16.036Z,37.70
2022-08-08T14:34:42.086Z,38.10
2022-08-08T14:37:12.882Z,38.10
2022-08-08T14:39:48.524Z,38.10
2022-08-08T14:42:16.883Z,36.80
2022-08-08T14:44:55.308Z,36.60
2022-08-08T14:47:25.787Z,36.80
2022-08-08T14:50:10.723Z,37.00
2022-08-08T14:52:47.068Z,36.80
2022-08-08T14:55:22.194Z,36.20
2022-08-08T14:58:02.919Z,36.30
2022-08-08T15:00:20.281Z,36.20
2022-08-08T15:02:58.527Z,36.20
2022-08-08T15:05:42.804Z,35.40
2022-08-08T15:07:59.925Z,36.20
2022-08-08T15:10:28.905Z,36.10
2022-08-08T15:12:58.608Z,36.00
2022-08-08T15:16:01.669Z,36.30
2022-08-08T15:17:59.714Z,36.10
2022-08-08T15:20:29.362Z,36.50
2022-08-08T15:23:01.673Z,37.20
2022-08-08T15:25:33.079Z,37.00
2022-08-08T15:28:32.390Z,36.50
2022-08-08T15:30:34.240Z,36.90
2022-08-08T15:33:03.806Z,36.50
2022-08-08T15:35:39.083Z,35.90
2022-08-08T15:38:12.462Z,35.50
2022-08-08T15:40:38.604Z,35.70
2022-08-08T15:43:35.383Z,35.70
2022-08-08T15:45:41.785Z,35.70
2022-08-08T15:48:16.028Z,36.00
2022-08-08T15:51:06.407Z,36.20
2022-08-08T15:53:49.565Z,36.70
2022-08-08T15:56:12.308Z,36.10
2022-08-08T15:58:38.999Z,35.60
2022-08-08T16:01:09.582Z,35.50
2022-08-08T16:03:39.211Z,35.30
2022-08-08T16:06:13.626Z,35.50
2022-08-08T16:08:40.363Z,35.40
2022-08-08T16:13:11.270Z,35.80
2022-08-08T16:13:43.817Z,35.50
2022-08-08T16:16:18.564Z,35.50
2022-08-08T16:18:57.481Z,35.70
2022-08-08T16:21:25.876Z,35.40
2022-08-08T16:23:49.077Z,35.70
2022-08-08T16:26:22.992Z,36.10
2022-08-08T16:28:51.382Z,36.20
2022-08-08T16:31:21.681Z,36.10
2022-08-08T16:33:58.221Z,36.20
2022-08-08T16:36:27.980Z,35.70
2022-08-08T16:38:56.746Z,35.60
2022-08-08T16:41:26.326Z,35.30
2022-08-08T16:43:57.742Z,35.40
2022-08-08T16:46:44.109Z,35.60
2022-08-08T16:49:01.314Z,35.70
2022-08-08T16:54:59.759Z,35.50
2022-08-08T16:55:00.531Z,35.10
2022-08-08T16:56:34.946Z,35.20
2022-08-08T16:59:05.325Z,35.40
2022-08-08T17:01:39.643Z,35.30
2022-08-08T17:04:07.476Z,35.30
2022-08-08T17:06:43.694Z,35.20
2022-08-08T17:09:15.236Z,34.80
2022-08-08T17:11:48.764Z,34.60
2022-08-08T17:14:17.830Z,34.50
2022-08-08T17:16:41.408Z,34.30
2022-08-08T17:19:12.527Z,34.40
2022-08-08T17:21:42.833Z,34.50
2022-08-08T17:24:27.451Z,34.50
2022-08-08T17:26:43.793Z,34.30
2022-08-08T17:29:15.127Z,34.30
2022-08-08T17:31:46.843Z,34.40
2022-08-08T17:34:36.562Z,34.30
2022-08-08T17:37:03.320Z,34.30
2022-08-08T17:39:45.806Z,34.20
2022-08-08T17:41:58.591Z,34.20
2022-08-08T17:44:21.206Z,34.20
2022-08-08T17:46:54.006Z,34.20
2022-08-08T17:49:28.766Z,34.10
2022-08-08T17:51:56.711Z,34.00
2022-08-08T17:54:29.206Z,34.00
2022-08-08T17:56:59.057Z,33.90
2022-08-08T17:59:30.440Z,33.80
2022-08-08T18:02:06.537Z,33.70
2022-08-08T18:04:42.558Z,33.70
2022-08-08T18:08:01.929Z,33.60
2022-08-08T18:09:43.356Z,33.60
2022-08-08T18:12:14.410Z,33.50
2022-08-08T18:14:47.250Z,33.40
2022-08-08T18:17:28.592Z,33.40
2022-08-08T18:20:44.383Z,33.30
2022-08-08T18:22:49.936Z,33.20
2022-08-08T18:24:55.749Z,33.20
2022-08-08T18:27:25.543Z,33.10
2022-08-08T18:29:56.576Z,33.00
2022-08-08T18:32:26.111Z,33.00
2022-08-08T18:34:57.544Z,32.90
2022-08-08T18:37:34.689Z,32.80
2022-08-08T18:39:58.425Z,32.80
2022-08-08T18:42:29.924Z,32.80
2022-08-08T18:44:59.427Z,32.60
2022-08-08T18:47:31.408Z,32.50
2022-08-08T18:50:02.730Z,32.40
2022-08-08T18:52:36.850Z,32.40
2022-08-08T18:55:10.271Z,32.40
2022-08-08T18:57:45.031Z,32.30
2022-08-08T19:00:20.530Z,32.20
2022-08-08T19:02:55.825Z,32.10
2022-08-08T19:05:31.935Z,32.00
2022-08-08T19:07:56.741Z,31.90
2022-08-08T19:10:26.559Z,31.80
2022-08-08T19:12:56.096Z,31.70
2022-08-08T19:15:33.940Z,31.60
2022-08-08T19:18:33.391Z,31.50
2022-08-08T19:20:27.857Z,31.50
2022-08-08T19:22:57.350Z,31.40
2022-08-08T19:26:01.731Z,31.30
2022-08-08T19:28:00.017Z,31.20
2022-08-08T19:30:29.964Z,31.20
2022-08-08T19:33:00.640Z,31.10
2022-08-08T19:35:45.288Z,31.10
2022-08-08T19:38:02.583Z,30.90
2022-08-08T19:40:32.994Z,30.80
2022-08-08T19:43:02.483Z,30.80
2022-08-08T19:45:58.861Z,30.70
2022-08-08T19:48:03.310Z,30.60
2022-08-08T19:50:33.494Z,30.60
2022-08-08T19:53:03.143Z,30.60
2022-08-08T19:55:35.991Z,30.50
2022-08-08T19:58:07.440Z,30.40
2022-08-08T20:00:37.835Z,30.40
2022-08-08T20:03:15.134Z,30.30
2022-08-08T20:06:15.656Z,30.30
2022-08-08T20:08:29.288Z,30.20
2022-08-08T20:10:42.957Z,30.10
2022-08-08T20:14:10.355Z,30.10
2022-08-08T20:15:52.674Z,30.10
2022-08-08T20:18:15.511Z,30.00
2022-08-08T20:20:45.875Z,29.90
2022-08-08T20:23:15.977Z,29.90
2022-08-08T20:25:46.198Z,29.80
2022-08-08T20:28:19.996Z,29.80
2022-08-08T20:30:55.721Z,29.70
2022-08-08T20:35:57.497Z,29.60
2022-08-08T20:38:19.922Z,29.50
2022-08-08T20:40:52.406Z,29.50
2022-08-08T20:43:43.511Z,29.40
2022-08-08T20:45:57.852Z,29.40
2022-08-08T20:48:26.140Z,29.40
2022-08-08T20:50:56.782Z,29.30
2022-08-08T20:53:59.233Z,29.20
2022-08-08T20:55:59.599Z,29.20
2022-08-08T20:58:30.710Z,29.10
2022-08-08T21:01:00.624Z,29.00
2022-08-08T21:03:30.333Z,29.00
2022-08-08T21:05:59.932Z,28.90
2022-08-08T21:08:36.235Z,28.80
2022-08-08T21:11:00.853Z,28.80
2022-08-08T21:13:40.671Z,28.80
2022-08-08T21:16:06.030Z,28.70
2022-08-08T21:18:32.617Z,28.70
2022-08-08T21:21:02.867Z,28.70
2022-08-08T21:24:02.568Z,28.60
2022-08-08T21:26:03.683Z,28.60
2022-08-08T21:28:33.598Z,28.50
2022-08-08T21:31:22.569Z,28.60
2022-08-08T21:33:38.456Z,28.50
2022-08-08T21:36:21.019Z,28.40
2022-08-08T21:38:52.477Z,28.40
2022-08-08T21:41:38.212Z,28.30
2022-08-08T21:43:54.065Z,28.30
2022-08-08T21:48:05.598Z,28.20
2022-08-08T21:48:57.243Z,28.20
2022-08-08T21:54:16.857Z,28.20
2022-08-08T21:54:34.598Z,28.10
2022-08-08T21:56:40.131Z,28.10
2022-08-08T21:59:02.561Z,28.10
2022-08-08T22:01:40.428Z,28.10
2022-08-08T22:04:06.680Z,28.00
2022-08-08T22:06:37.866Z,28.00
2022-08-08T22:09:08.445Z,27.90
2022-08-08T22:11:59.441Z,27.60
2022-08-08T22:14:10.338Z,27.10
2022-08-08T22:16:41.591Z,26.90
2022-08-08T22:19:16.338Z,26.70
2022-08-08T22:21:42.099Z,27.10
2022-08-08T22:24:11.803Z,27.40
2022-08-08T22:27:01.435Z,27.40
2022-08-08T22:29:57.251Z,27.50
2022-08-08T22:32:02.324Z,27.40
2022-08-08T22:34:15.620Z,27.40
2022-08-08T22:36:45.193Z,27.40
2022-08-08T22:39:19.151Z,27.40
2022-08-08T22:41:49.296Z,27.30
2022-08-08T22:44:18.396Z,27.30
2022-08-08T22:46:47.846Z,27.10
2022-08-08T22:49:20.230Z,27.00
2022-08-08T22:51:49.888Z,27.10
2022-08-08T22:54:31.104Z,27.10
2022-08-08T22:56:52.418Z,27.10
2022-08-08T22:59:21.995Z,27.10
2022-08-08T23:02:03.002Z,27.00
2022-08-08T23:04:31.927Z,26.90
2022-08-08T23:07:03.046Z,26.90
2022-08-08T23:09:30.608Z,26.90
2022-08-08T23:12:28.101Z,26.90
2022-08-08T23:14:28.170Z,26.90
2022-08-08T23:16:59.646Z,26.90
2022-08-08T23:19:30.795Z,26.90
2022-08-08T23:22:06.785Z,26.70
2022-08-08T23:24:41.241Z,26.50
2022-08-08T23:27:17.410Z,26.60
2022-08-08T23:29:55.104Z,26.70
2022-08-08T23:32:17.151Z,26.70
2022-08-08T23:34:49.730Z,26.60
2022-08-08T23:37:24.473Z,26.30
2022-08-08T23:39:57.828Z,26.30
2022-08-08T23:42:21.841Z,26.40
2022-08-08T23:44:52.107Z,26.20
2022-08-08T23:49:08.765Z,26.20
2022-08-08T23:50:01.044Z,26.20
2022-08-08T23:52:27.597Z,26.20
2022-08-08T23:55:07.450Z,26.10
2022-08-08T23:57:39.094Z,26.10
